Time;durP1;ratioP1;P1;durP2;ratioP2;P2;SDS_P1;SDS_P2;PMS_P1;PMS_P2;Temp;Humidity;BMP_temperature;BMP_pressure;BME280_temperature;BME280_humidity;BME280_pressure;Samples;Min_cycle;Max_cycle;Signal;HPM_P1;HPM_P2
2022/05/02 00:00:30;;;;;;;;;;;17.40;62.20;;;;;;2045693;28;19934;-65
2022/05/02 00:01:28;;;;;;;;;;;17.40;62.30;;;;;;2044872;28;20004;-65
2022/05/02 00:02:26;;;;;;;;;;;17.40;62.30;;;;;;2046309;28;19945;-65
2022/05/02 00:03:25;;;;;;;;;;;17.40;62.30;;;;;;2046265;28;20328;-66
2022/05/02 00:04:23;;;;;;;;;;;17.40;62.30;;;;;;2046528;28;19911;-65
2022/05/02 00:05:22;;;;;;;;;;;17.40;62.30;;;;;;2046365;28;19981;-66
2022/05/02 00:06:20;;;;;;;;;;;17.30;63.00;;;;;;2046266;28;19903;-65
2022/05/02 00:07:20;;;;;;;;;;;17.40;62.40;;;;;;2046552;28;19903;-66
2022/05/02 00:08:19;;;;;;;;;;;17.40;62.40;;;;;;2046331;28;19904;-66
2022/05/02 00:09:17;;;;;;;;;;;17.40;62.30;;;;;;2046715;28;19904;-66
2022/05/02 00:10:16;;;;;;;;;;;17.40;62.30;;;;;;2046587;28;19904;-66
2022/05/02 00:11:14;;;;;;;;;;;17.40;62.40;;;;;;2046409;28;20367;-65
2022/05/02 00:12:12;;;;;;;;;;;17.40;62.40;;;;;;2046525;28;19911;-66
2022/05/02 00:13:11;;;;;;;;;;;17.40;62.30;;;;;;2046265;28;19908;-66
2022/05/02 00:14:09;;;;;;;;;;;17.40;62.40;;;;;;2046292;28;19911;-65
2022/05/02 00:15:08;;;;;;;;;;;17.40;62.40;;;;;;2046167;28;19939;-65
2022/05/02 00:16:07;;;;;;;;;;;17.40;62.50;;;;;;2045740;28;19907;-65
2022/05/02 00:17:05;;;;;;;;;;;17.40;62.40;;;;;;2045987;28;19917;-64
2022/05/02 00:18:04;;;;;;;;;;;17.40;62.40;;;;;;2046344;28;20028;-65
2022/05/02 00:19:04;;;;;;;;;;;17.40;62.50;;;;;;2046395;28;19903;-65
2022/05/02 00:20:04;;;;;;;;;;;17.40;62.40;;;;;;2046204;28;19904;-65
2022/05/02 00:21:04;;;;;;;;;;;17.40;62.60;;;;;;2046367;28;19904;-65
2022/05/02 00:22:02;;;;;;;;;;;17.40;62.60;;;;;;2046064;28;19936;-65
2022/05/02 00:23:05;;;;;;;;;;;17.40;62.50;;;;;;2046428;28;19996;-65
2022/05/02 00:24:04;;;;;;;;;;;17.40;62.70;;;;;;2046419;28;19998;-64
2022/05/02 00:25:04;;;;;;;;;;;17.40;62.60;;;;;;2046259;28;19903;-65
2022/05/02 00:26:02;;;;;;;;;;;17.40;62.60;;;;;;2046078;28;20007;-65
2022/05/02 00:27:01;;;;;;;;;;;17.40;62.50;;;;;;2046268;28;19903;-65
2022/05/02 00:28:00;;;;;;;;;;;17.40;62.60;;;;;;2045635;28;20212;-65
2022/05/02 00:28:59;;;;;;;;;;;17.40;62.60;;;;;;2045510;28;19904;-65
2022/05/02 00:29:57;;;;;;;;;;;17.40;62.50;;;;;;2046030;28;20351;-65
2022/05/02 00:30:56;;;;;;;;;;;17.30;62.50;;;;;;2046332;28;19908;-64
2022/05/02 00:31:54;;;;;;;;;;;17.40;62.60;;;;;;2046132;28;19911;-64
2022/05/02 00:32:53;;;;;;;;;;;17.30;62.50;;;;;;2046225;28;19904;-64
2022/05/02 00:33:51;;;;;;;;;;;17.30;62.60;;;;;;2046115;28;19910;-64
2022/05/02 00:34:50;;;;;;;;;;;17.30;62.50;;;;;;2046289;28;19911;-65
2022/05/02 00:35:48;;;;;;;;;;;17.30;62.50;;;;;;2046215;28;19904;-65
2022/05/02 00:36:48;;;;;;;;;;;17.40;62.70;;;;;;2046017;28;19914;-66
2022/05/02 00:37:47;;;;;;;;;;;17.30;62.60;;;;;;2046350;28;20409;-65
2022/05/02 00:38:46;;;;;;;;;;;17.40;62.60;;;;;;2045379;28;20002;-65
2022/05/02 00:39:45;;;;;;;;;;;17.30;62.70;;;;;;2045377;28;19908;-65
2022/05/02 00:40:46;;;;;;;;;;;17.30;62.50;;;;;;2045659;28;19904;-65
2022/05/02 00:41:44;;;;;;;;;;;17.30;62.80;;;;;;2046289;28;19904;-65
2022/05/02 00:42:44;;;;;;;;;;;17.30;62.60;;;;;;2046274;28;20389;-65
2022/05/02 00:43:42;;;;;;;;;;;17.40;62.90;;;;;;2046179;28;19998;-65
2022/05/02 00:44:42;;;;;;;;;;;17.30;62.60;;;;;;2046220;28;20239;-66
2022/05/02 00:45:40;;;;;;;;;;;17.30;62.90;;;;;;2045785;28;20356;-65
2022/05/02 00:46:39;;;;;;;;;;;17.30;62.70;;;;;;2045943;28;20308;-66
2022/05/02 00:47:37;;;;;;;;;;;17.30;62.90;;;;;;2045836;28;19904;-65
2022/05/02 00:48:36;;;;;;;;;;;17.30;62.80;;;;;;2045774;28;19908;-66
2022/05/02 00:49:36;;;;;;;;;;;17.30;62.70;;;;;;2046210;28;20400;-66
2022/05/02 00:50:36;;;;;;;;;;;17.30;62.90;;;;;;2045988;28;20339;-66
2022/05/02 00:51:34;;;;;;;;;;;17.30;62.90;;;;;;2045675;28;19958;-66
2022/05/02 00:52:33;;;;;;;;;;;17.30;62.80;;;;;;2045948;28;19910;-65
2022/05/02 00:53:31;;;;;;;;;;;17.30;62.80;;;;;;2046030;28;19907;-65
2022/05/02 00:54:29;;;;;;;;;;;17.30;62.70;;;;;;2046087;28;19908;-65
2022/05/02 00:55:30;;;;;;;;;;;17.30;62.80;;;;;;2046061;28;19969;-65
2022/05/02 00:56:29;;;;;;;;;;;17.30;63.10;;;;;;2045849;28;19951;-65
2022/05/02 00:57:29;;;;;;;;;;;17.30;63.00;;;;;;2044616;28;19908;-65
2022/05/02 00:58:27;;;;;;;;;;;17.30;63.10;;;;;;2045300;28;20010;-65
2022/05/02 00:59:27;;;;;;;;;;;17.30;62.90;;;;;;2046060;28;19908;-66
2022/05/02 01:00:27;;;;;;;;;;;17.20;63.10;;;;;;2046043;28;20343;-65
2022/05/02 01:01:25;;;;;;;;;;;17.20;63.40;;;;;;2045941;28;19904;-66
2022/05/02 01:02:24;;;;;;;;;;;17.30;63.20;;;;;;2046205;28;19998;-65
2022/05/02 01:03:22;;;;;;;;;;;17.30;63.00;;;;;;2045825;28;19910;-65
2022/05/02 01:04:21;;;;;;;;;;;17.20;63.00;;;;;;2045535;28;20390;-65
2022/05/02 01:05:19;;;;;;;;;;;17.20;62.90;;;;;;2045399;28;20037;-66
2022/05/02 01:07:35;;;;;;;;;;;17.20;63.20;;;;;;2045959;28;19907;-65
2022/05/02 01:08:34;;;;;;;;;;;17.20;63.40;;;;;;2046019;28;20408;-65
2022/05/02 01:09:34;;;;;;;;;;;17.20;63.10;;;;;;2046876;28;19904;-65
2022/05/02 01:10:33;;;;;;;;;;;17.20;63.30;;;;;;2053494;28;20336;-65
2022/05/02 01:11:31;;;;;;;;;;;17.20;63.40;;;;;;2053660;28;19904;-65
2022/05/02 01:12:29;;;;;;;;;;;17.20;63.30;;;;;;2049513;28;19907;-64
2022/05/02 01:13:57;;;;;;;;;;;17.20;63.30;;;;;;2052867;28;20006;-64
2022/05/02 01:14:56;;;;;;;;;;;17.20;63.80;;;;;;2043115;28;20384;-64
2022/05/02 01:15:55;;;;;;;;;;;17.20;63.70;;;;;;2047439;28;20339;-64
2022/05/02 01:16:53;;;;;;;;;;;17.20;63.30;;;;;;2051283;28;19904;-64
2022/05/02 01:17:52;;;;;;;;;;;17.20;63.30;;;;;;2050516;28;19908;-65
2022/05/02 01:18:51;;;;;;;;;;;17.20;63.20;;;;;;2047882;28;19904;-64
2022/05/02 01:19:50;;;;;;;;;;;17.20;63.70;;;;;;2047788;28;19994;-66
2022/05/02 01:20:48;;;;;;;;;;;17.20;63.40;;;;;;2050005;28;19903;-65
2022/05/02 01:21:47;;;;;;;;;;;17.20;63.40;;;;;;2051198;28;19903;-65
2022/05/02 01:22:45;;;;;;;;;;;17.20;63.50;;;;;;2052815;28;19960;-64
2022/05/02 01:23:45;;;;;;;;;;;17.20;63.70;;;;;;2053362;28;20025;-64
2022/05/02 01:24:44;;;;;;;;;;;17.20;64.10;;;;;;2050787;28;19904;-66
2022/05/02 01:25:43;;;;;;;;;;;17.20;64.40;;;;;;2045818;28;19904;-64
2022/05/02 01:26:41;;;;;;;;;;;17.20;63.60;;;;;;2045693;28;19903;-65
2022/05/02 01:27:40;;;;;;;;;;;17.10;63.80;;;;;;2045926;28;20250;-65
2022/05/02 01:28:49;;;;;;;;;;;17.20;63.80;;;;;;2045783;28;20057;-65
2022/05/02 01:29:47;;;;;;;;;;;17.20;66.30;;;;;;2045873;28;19904;-66
2022/05/02 01:30:46;;;;;;;;;;;17.20;64.20;;;;;;2045883;28;19908;-66
2022/05/02 01:31:45;;;;;;;;;;;17.20;63.80;;;;;;2045975;28;20342;-66
2022/05/02 01:32:44;;;;;;;;;;;17.20;64.40;;;;;;2045776;28;19911;-64
2022/05/02 01:33:42;;;;;;;;;;;17.10;64.40;;;;;;2045956;28;19992;-65
2022/05/02 01:34:41;;;;;;;;;;;17.20;65.30;;;;;;2045457;28;20355;-65
2022/05/02 01:35:39;;;;;;;;;;;17.10;64.50;;;;;;2045751;28;19911;-65
2022/05/02 01:36:39;;;;;;;;;;;17.10;64.00;;;;;;2045629;28;19903;-65
2022/05/02 01:37:38;;;;;;;;;;;17.20;65.60;;;;;;2046036;28;19958;-65
2022/05/02 01:38:37;;;;;;;;;;;17.00;64.20;;;;;;2045787;28;19914;-65
2022/05/02 01:39:36;;;;;;;;;;;17.10;64.90;;;;;;2045749;28;20327;-65
2022/05/02 01:40:34;;;;;;;;;;;17.20;67.20;;;;;;2045980;28;19964;-65
2022/05/02 01:41:33;;;;;;;;;;;17.10;66.30;;;;;;2045668;28;20350;-66
2022/05/02 01:42:32;;;;;;;;;;;17.20;69.70;;;;;;2045805;28;19910;-65
2022/05/02 01:43:31;;;;;;;;;;;17.10;81.10;;;;;;2045767;28;20006;-65
2022/05/02 01:44:29;;;;;;;;;;;17.10;73.00;;;;;;2045695;28;20439;-65
2022/05/02 01:45:28;;;;;;;;;;;17.00;71.30;;;;;;2045576;28;19904;-65
2022/05/02 01:46:28;;;;;;;;;;;17.10;72.40;;;;;;2045592;28;19942;-65
2022/05/02 01:47:28;;;;;;;;;;;17.10;69.00;;;;;;2045639;28;19908;-66
2022/05/02 01:48:26;;;;;;;;;;;17.20;67.30;;;;;;2045607;28;19904;-65
2022/05/02 01:49:26;;;;;;;;;;;17.10;64.80;;;;;;2045768;28;19911;-65
2022/05/02 01:50:25;;;;;;;;;;;17.10;68.20;;;;;;2044977;28;19904;-65
2022/05/02 01:51:23;;;;;;;;;;;17.10;66.10;;;;;;2044995;28;19911;-65
2022/05/02 01:52:21;;;;;;;;;;;17.10;64.50;;;;;;2045649;28;19998;-65
2022/05/02 01:53:22;;;;;;;;;;;17.10;67.00;;;;;;2045401;28;20007;-65
2022/05/02 01:54:20;;;;;;;;;;;17.10;67.10;;;;;;2044838;28;19957;-65
2022/05/02 01:55:18;;;;;;;;;;;17.10;66.10;;;;;;2044916;28;19904;-65
2022/05/02 01:56:18;;;;;;;;;;;17.10;64.50;;;;;;2045526;28;20334;-64
2022/05/02 01:57:17;;;;;;;;;;;17.10;64.40;;;;;;2045310;28;20358;-65
2022/05/02 01:58:15;;;;;;;;;;;17.10;62.00;;;;;;2045315;28;19943;-66
2022/05/02 01:59:14;;;;;;;;;;;17.10;61.90;;;;;;2045563;28;19926;-65
2022/05/02 02:00:12;;;;;;;;;;;17.10;61.60;;;;;;2045617;28;20244;-65
2022/05/02 02:01:11;;;;;;;;;;;17.10;61.80;;;;;;2045267;28;19943;-65
2022/05/02 02:02:09;;;;;;;;;;;17.10;61.50;;;;;;2044635;28;19904;-65
2022/05/02 02:03:08;;;;;;;;;;;17.10;61.50;;;;;;2036597;28;20351;-65
2022/05/02 02:05:48;;;;;;;;;;;17.10;61.20;;;;;;2044207;28;20009;-65
2022/05/02 02:06:43;;;;;;;;;;;17.10;61.60;;;;;;2045175;28;20006;-65
2022/05/02 02:07:41;;;;;;;;;;;17.10;61.30;;;;;;2045530;28;19907;-66
2022/05/02 02:08:40;;;;;;;;;;;17.10;61.40;;;;;;2045366;28;20404;-65
2022/05/02 02:09:38;;;;;;;;;;;17.10;61.50;;;;;;2045255;28;19903;-65
2022/05/02 02:10:38;;;;;;;;;;;17.00;61.20;;;;;;2045460;28;19912;-65
2022/05/02 02:11:36;;;;;;;;;;;17.10;61.20;;;;;;2045269;28;19904;-65
2022/05/02 02:12:34;;;;;;;;;;;17.10;61.30;;;;;;2045373;28;20269;-66
2022/05/02 02:13:33;;;;;;;;;;;17.10;61.20;;;;;;2045408;28;19972;-67
2022/05/02 02:14:32;;;;;;;;;;;17.10;61.40;;;;;;2045221;28;20438;-65
2022/05/02 02:15:30;;;;;;;;;;;17.10;61.30;;;;;;2045336;28;20296;-65
2022/05/02 02:16:28;;;;;;;;;;;17.10;61.30;;;;;;2045036;28;19950;-64
2022/05/02 02:17:27;;;;;;;;;;;17.10;61.30;;;;;;2045356;28;20319;-64
2022/05/02 02:18:27;;;;;;;;;;;17.10;61.30;;;;;;2044669;28;19915;-65
2022/05/02 02:19:25;;;;;;;;;;;17.10;61.40;;;;;;2044751;28;19904;-64
2022/05/02 02:20:24;;;;;;;;;;;17.10;61.30;;;;;;2045504;28;19963;-65
2022/05/02 02:21:23;;;;;;;;;;;17.10;61.40;;;;;;2045400;28;19907;-66
2022/05/02 02:22:22;;;;;;;;;;;17.10;61.80;;;;;;2045154;28;20399;-65
2022/05/02 02:23:21;;;;;;;;;;;17.10;61.60;;;;;;2045118;28;19926;-65
2022/05/02 02:24:20;;;;;;;;;;;17.10;61.70;;;;;;2045413;28;19964;-64
2022/05/02 02:25:18;;;;;;;;;;;17.10;61.50;;;;;;2045473;28;20312;-65
2022/05/02 02:26:17;;;;;;;;;;;17.00;61.20;;;;;;2045220;28;19991;-65
2022/05/02 02:27:16;;;;;;;;;;;17.10;61.40;;;;;;2045421;28;20410;-65
2022/05/02 02:28:15;;;;;;;;;;;17.10;61.60;;;;;;2045305;28;19904;-64
2022/05/02 02:29:13;;;;;;;;;;;17.10;61.60;;;;;;2045313;28;19927;-65
2022/05/02 02:30:14;;;;;;;;;;;17.10;61.40;;;;;;2045421;28;19954;-67
2022/05/02 02:31:12;;;;;;;;;;;17.00;61.70;;;;;;2045275;28;19998;-65
2022/05/02 02:32:12;;;;;;;;;;;17.10;61.60;;;;;;2045180;28;19904;-65
2022/05/02 02:33:10;;;;;;;;;;;17.10;61.90;;;;;;2045102;28;19957;-65
2022/05/02 02:34:09;;;;;;;;;;;17.10;61.60;;;;;;2045063;28;19903;-65
2022/05/02 02:35:08;;;;;;;;;;;17.00;61.40;;;;;;2045100;28;19994;-64
2022/05/02 02:36:06;;;;;;;;;;;17.00;61.70;;;;;;2045439;28;20074;-65
2022/05/02 02:37:04;;;;;;;;;;;17.10;61.60;;;;;;2045263;28;19974;-65
2022/05/02 02:38:03;;;;;;;;;;;17.00;61.40;;;;;;2045079;28;19903;-66
2022/05/02 02:39:02;;;;;;;;;;;17.10;61.60;;;;;;2045347;28;19904;-65
2022/05/02 02:40:00;;;;;;;;;;;17.00;61.40;;;;;;2045287;28;19903;-66
2022/05/02 02:40:58;;;;;;;;;;;17.00;61.40;;;;;;2045247;28;19903;-66
2022/05/02 02:41:57;;;;;;;;;;;17.00;61.40;;;;;;2044546;28;19982;-66
2022/05/02 02:42:56;;;;;;;;;;;17.00;61.40;;;;;;2044669;28;19903;-65
2022/05/02 02:43:54;;;;;;;;;;;17.00;61.40;;;;;;2045330;28;19904;-65
2022/05/02 02:44:53;;;;;;;;;;;17.00;61.40;;;;;;2045346;28;19911;-64
2022/05/02 02:45:51;;;;;;;;;;;17.00;61.40;;;;;;2045151;28;20415;-65
2022/05/02 02:46:49;;;;;;;;;;;17.00;61.40;;;;;;2045146;28;19973;-66
2022/05/02 02:47:48;;;;;;;;;;;17.00;61.50;;;;;;2045452;28;19926;-66
2022/05/02 02:48:46;;;;;;;;;;;17.00;61.60;;;;;;2045380;28;19972;-65
2022/05/02 02:49:45;;;;;;;;;;;17.00;61.50;;;;;;2045370;28;19908;-65
2022/05/02 02:50:45;;;;;;;;;;;17.00;61.80;;;;;;2045425;28;19904;-65
2022/05/02 02:51:43;;;;;;;;;;;17.00;61.50;;;;;;2045196;28;19904;-66
2022/05/02 02:52:42;;;;;;;;;;;17.00;61.30;;;;;;2045187;28;20314;-66
2022/05/02 02:53:40;;;;;;;;;;;17.00;61.50;;;;;;2045333;28;20006;-65
2022/05/02 02:54:38;;;;;;;;;;;17.00;61.40;;;;;;2044929;28;19915;-65
2022/05/02 02:55:37;;;;;;;;;;;17.00;61.50;;;;;;2044804;28;20361;-65
2022/05/02 02:56:35;;;;;;;;;;;17.00;61.60;;;;;;2044891;28;19904;-65
2022/05/02 02:57:34;;;;;;;;;;;17.00;61.60;;;;;;2044328;28;20375;-67
2022/05/02 02:58:32;;;;;;;;;;;17.00;61.50;;;;;;2044400;28;19911;-65
2022/05/02 02:59:30;;;;;;;;;;;17.00;61.50;;;;;;2044996;28;20246;-66
2022/05/02 03:00:29;;;;;;;;;;;17.00;61.60;;;;;;2045398;28;19953;-66
2022/05/02 03:01:28;;;;;;;;;;;17.00;62.20;;;;;;2045365;28;19904;-66
2022/05/02 03:02:26;;;;;;;;;;;17.00;61.70;;;;;;2045426;28;19943;-65
2022/05/02 03:03:25;;;;;;;;;;;17.00;61.90;;;;;;2045691;28;19905;-66
2022/05/02 03:06:58;;;;;;;;;;;16.90;61.80;;;;;;2046645;28;19919;-66
2022/05/02 03:07:57;;;;;;;;;;;16.90;62.50;;;;;;2046900;28;19904;-65
2022/05/02 03:08:56;;;;;;;;;;;17.00;62.30;;;;;;2046128;28;20402;-65
2022/05/02 03:09:56;;;;;;;;;;;16.90;62.00;;;;;;2046252;28;19926;-65
2022/05/02 03:10:55;;;;;;;;;;;17.00;62.20;;;;;;2046505;28;19904;-66
2022/05/02 03:11:53;;;;;;;;;;;17.00;62.20;;;;;;2046929;28;20339;-65
2022/05/02 03:12:53;;;;;;;;;;;17.00;62.00;;;;;;2046769;28;19953;-65
2022/05/02 03:13:51;;;;;;;;;;;17.00;62.20;;;;;;2045860;28;19903;-65
2022/05/02 03:14:49;;;;;;;;;;;17.00;61.70;;;;;;2046097;28;19904;-65
2022/05/02 03:15:48;;;;;;;;;;;17.00;62.50;;;;;;2046595;28;19904;-65
2022/05/02 03:16:46;;;;;;;;;;;17.00;61.90;;;;;;2046495;28;20277;-66
2022/05/02 03:17:45;;;;;;;;;;;17.00;62.10;;;;;;2046775;28;19903;-65
2022/05/02 03:18:43;;;;;;;;;;;17.00;61.80;;;;;;2046181;28;19914;-67
2022/05/02 03:19:42;;;;;;;;;;;17.00;62.00;;;;;;2046170;28;19956;-65
2022/05/02 03:20:40;;;;;;;;;;;17.00;62.00;;;;;;2046741;28;19997;-65
2022/05/02 03:21:40;;;;;;;;;;;16.90;61.90;;;;;;2046969;28;19904;-65
2022/05/02 03:22:39;;;;;;;;;;;17.00;62.40;;;;;;2046787;28;20284;-65
2022/05/02 03:23:37;;;;;;;;;;;17.00;62.20;;;;;;2046068;28;19904;-66
2022/05/02 03:24:36;;;;;;;;;;;16.90;62.10;;;;;;2046204;28;19911;-65
2022/05/02 03:25:34;;;;;;;;;;;17.00;62.70;;;;;;2046628;28;19939;-65
2022/05/02 03:26:38;;;;;;;;;;;17.00;62.00;;;;;;2046008;28;20068;-66
2022/05/02 03:27:37;;;;;;;;;;;16.90;62.40;;;;;;2046121;28;19908;-66
2022/05/02 03:28:35;;;;;;;;;;;16.90;62.40;;;;;;2046749;28;19911;-66
2022/05/02 03:29:36;;;;;;;;;;;17.00;62.30;;;;;;2046756;28;20081;-66
2022/05/02 03:30:34;;;;;;;;;;;16.90;62.00;;;;;;2046849;28;19907;-65
2022/05/02 03:31:33;;;;;;;;;;;17.00;62.00;;;;;;2046741;28;20002;-66
2022/05/02 03:32:31;;;;;;;;;;;16.90;62.20;;;;;;2046907;28;19903;-65
2022/05/02 03:33:29;;;;;;;;;;;16.80;62.00;;;;;;2046604;28;19918;-66
2022/05/02 03:34:28;;;;;;;;;;;16.90;62.20;;;;;;2046587;28;20437;-66
2022/05/02 03:35:27;;;;;;;;;;;17.00;62.20;;;;;;2046431;28;19959;-65
2022/05/02 03:36:25;;;;;;;;;;;16.90;62.50;;;;;;2046167;28;19904;-65
2022/05/02 03:37:26;;;;;;;;;;;16.90;62.40;;;;;;2046154;28;19935;-65
2022/05/02 03:38:24;;;;;;;;;;;16.90;63.30;;;;;;2046747;28;20006;-65
2022/05/02 03:39:23;;;;;;;;;;;16.90;62.40;;;;;;2046583;28;19904;-65
2022/05/02 03:40:21;;;;;;;;;;;16.90;62.50;;;;;;2046543;28;19947;-65
2022/05/02 03:41:20;;;;;;;;;;;16.90;62.10;;;;;;2046480;28;20266;-65
2022/05/02 03:42:18;;;;;;;;;;;16.90;61.80;;;;;;2046453;28;19910;-65
2022/05/02 03:43:17;;;;;;;;;;;16.90;61.90;;;;;;2046504;28;19908;-65
2022/05/02 03:44:15;;;;;;;;;;;16.90;62.20;;;;;;2046519;28;20274;-65
2022/05/02 03:45:14;;;;;;;;;;;16.90;62.40;;;;;;2046438;28;20275;-65
2022/05/02 03:46:12;;;;;;;;;;;16.90;61.80;;;;;;2046350;28;19903;-65
2022/05/02 03:47:11;;;;;;;;;;;16.90;61.90;;;;;;2045448;28;20360;-65
2022/05/02 03:48:11;;;;;;;;;;;16.80;61.80;;;;;;2046103;28;19907;-65
2022/05/02 03:49:12;;;;;;;;;;;16.90;62.20;;;;;;2046469;28;19935;-65
2022/05/02 03:50:11;;;;;;;;;;;16.90;63.40;;;;;;2046121;28;19910;-64
2022/05/02 03:51:09;;;;;;;;;;;16.80;62.40;;;;;;2046250;28;19911;-64
2022/05/02 03:52:07;;;;;;;;;;;16.90;62.40;;;;;;2046407;28;19956;-65
2022/05/02 03:53:08;;;;;;;;;;;16.80;62.30;;;;;;2046362;28;20489;-65
2022/05/02 03:54:06;;;;;;;;;;;16.90;62.30;;;;;;2045843;28;19948;-65
2022/05/02 03:55:05;;;;;;;;;;;16.90;62.30;;;;;;2037752;28;20396;-65
2022/05/02 03:56:03;;;;;;;;;;;16.90;63.20;;;;;;2045517;28;19912;-65
2022/05/02 03:57:02;;;;;;;;;;;16.90;62.60;;;;;;2046404;28;19907;-65
2022/05/02 03:58:02;;;;;;;;;;;16.90;62.40;;;;;;2048704;28;19904;-65
2022/05/02 03:59:00;;;;;;;;;;;16.90;62.40;;;;;;2050166;28;19908;-65
2022/05/02 03:59:59;;;;;;;;;;;16.90;62.40;;;;;;2052300;28;19903;-65
2022/05/02 04:00:57;;;;;;;;;;;16.90;62.50;;;;;;2051897;28;20370;-65
2022/05/02 04:01:57;;;;;;;;;;;16.90;63.10;;;;;;2046211;28;19911;-65
2022/05/02 04:02:56;;;;;;;;;;;16.90;64.00;;;;;;2046855;28;19904;-64
2022/05/02 04:03:54;;;;;;;;;;;16.90;64.40;;;;;;2047043;28;19910;-65
2022/05/02 04:04:52;;;;;;;;;;;16.80;63.90;;;;;;2046087;28;19908;-65
2022/05/02 04:05:51;;;;;;;;;;;16.80;63.50;;;;;;2046147;28;20171;-65
2022/05/02 04:06:49;;;;;;;;;;;16.90;63.30;;;;;;2046030;28;19926;-65
2022/05/02 04:07:48;;;;;;;;;;;16.90;64.50;;;;;;2046174;28;20251;-65
2022/05/02 04:08:46;;;;;;;;;;;16.80;65.80;;;;;;2046113;28;19914;-65
2022/05/02 04:09:45;;;;;;;;;;;16.90;69.20;;;;;;2046789;28;19998;-66
2022/05/02 04:10:43;;;;;;;;;;;16.90;67.80;;;;;;2046749;28;19953;-66
2022/05/02 04:11:41;;;;;;;;;;;16.90;67.90;;;;;;2046716;28;19904;-67
2022/05/02 04:12:40;;;;;;;;;;;16.80;66.50;;;;;;2046547;28;20412;-65
2022/05/02 04:13:38;;;;;;;;;;;16.80;65.40;;;;;;2046418;28;19914;-66
2022/05/02 04:14:37;;;;;;;;;;;16.90;64.30;;;;;;2046806;28;20347;-65
2022/05/02 04:15:35;;;;;;;;;;;16.90;63.70;;;;;;2046707;28;19963;-65
2022/05/02 04:16:34;;;;;;;;;;;16.90;63.40;;;;;;2048211;28;19925;-65
2022/05/02 04:17:33;;;;;;;;;;;16.80;63.20;;;;;;2055401;28;19900;-65
2022/05/02 04:18:33;;;;;;;;;;;16.80;63.20;;;;;;2055100;28;19904;-64
2022/05/02 04:19:32;;;;;;;;;;;16.90;63.30;;;;;;2054459;28;19915;-65
2022/05/02 04:20:30;;;;;;;;;;;16.80;63.00;;;;;;2053163;28;20006;-64
2022/05/02 04:21:28;;;;;;;;;;;16.90;63.10;;;;;;2046394;28;19922;-66
2022/05/02 04:22:27;;;;;;;;;;;16.90;63.00;;;;;;2046152;28;19908;-65
2022/05/02 04:23:25;;;;;;;;;;;16.90;63.00;;;;;;2046186;28;19904;-64
2022/05/02 04:24:24;;;;;;;;;;;16.90;63.00;;;;;;2045661;28;19915;-65
2022/05/02 04:25:22;;;;;;;;;;;16.90;62.90;;;;;;2045610;28;19939;-64
2022/05/02 04:26:23;;;;;;;;;;;16.90;62.90;;;;;;2046447;28;20348;-65
2022/05/02 04:27:21;;;;;;;;;;;16.80;62.80;;;;;;2046277;28;19964;-65
2022/05/02 04:28:21;;;;;;;;;;;16.90;62.80;;;;;;2046415;28;19904;-64
2022/05/02 04:29:19;;;;;;;;;;;16.90;63.00;;;;;;2046250;28;20347;-65
2022/05/02 04:30:19;;;;;;;;;;;16.90;62.80;;;;;;2046178;28;20311;-66
2022/05/02 04:31:19;;;;;;;;;;;16.80;62.80;;;;;;2046197;28;19911;-66
2022/05/02 04:32:17;;;;;;;;;;;16.90;62.90;;;;;;2045271;28;19914;-65
2022/05/02 04:33:16;;;;;;;;;;;16.80;62.70;;;;;;2045624;28;19954;-65
2022/05/02 04:34:14;;;;;;;;;;;16.70;62.70;;;;;;2045116;28;19956;-65
2022/05/02 04:35:13;;;;;;;;;;;16.80;62.70;;;;;;2045541;28;19947;-65
2022/05/02 04:36:11;;;;;;;;;;;17.00;62.90;;;;;;2046290;28;19910;-65
2022/05/02 04:37:10;;;;;;;;;;;16.80;62.70;;;;;;2046132;28;20307;-65
2022/05/02 04:38:08;;;;;;;;;;;16.80;62.80;;;;;;2046338;28;19908;-64
2022/05/02 04:39:07;;;;;;;;;;;16.90;62.80;;;;;;2046108;28;20013;-67
2022/05/02 04:40:06;;;;;;;;;;;16.80;62.70;;;;;;2046355;28;19904;-65
2022/05/02 04:41:06;;;;;;;;;;;16.90;62.80;;;;;;2045968;28;19908;-64
2022/05/02 04:42:05;;;;;;;;;;;16.90;62.80;;;;;;2046292;28;20001;-64
2022/05/02 04:43:03;;;;;;;;;;;16.80;62.70;;;;;;2046320;28;19904;-65
2022/05/02 04:44:02;;;;;;;;;;;16.80;62.70;;;;;;2046199;28;20343;-65
2022/05/02 04:45:00;;;;;;;;;;;16.80;62.60;;;;;;2046076;28;19952;-64
2022/05/02 04:45:59;;;;;;;;;;;16.90;62.80;;;;;;2045914;28;19904;-65
2022/05/02 04:46:58;;;;;;;;;;;16.80;62.60;;;;;;2046078;28;19910;-64
2022/05/02 04:47:57;;;;;;;;;;;16.80;62.60;;;;;;2046072;28;20355;-65
2022/05/02 04:48:56;;;;;;;;;;;16.90;62.80;;;;;;2046100;28;19994;-65
2022/05/02 04:49:54;;;;;;;;;;;16.80;62.70;;;;;;2046011;28;19911;-65
2022/05/02 04:50:53;;;;;;;;;;;16.80;62.60;;;;;;2045397;28;19911;-66
2022/05/02 04:51:51;;;;;;;;;;;16.80;62.60;;;;;;2045461;28;20278;-65
2022/05/02 04:52:50;;;;;;;;;;;16.80;62.60;;;;;;2046069;28;19904;-65
2022/05/02 04:53:48;;;;;;;;;;;16.80;62.60;;;;;;2045984;28;19983;-65
2022/05/02 04:54:46;;;;;;;;;;;16.90;62.70;;;;;;2045334;28;19907;-65
2022/05/02 04:55:45;;;;;;;;;;;16.80;62.60;;;;;;2045226;28;20371;-65
2022/05/02 04:56:44;;;;;;;;;;;16.80;62.60;;;;;;2045867;28;19911;-65
2022/05/02 04:57:42;;;;;;;;;;;16.80;62.40;;;;;;2045700;28;19904;-65
2022/05/02 04:58:41;;;;;;;;;;;16.80;62.40;;;;;;2045129;28;19911;-66
2022/05/02 04:59:39;;;;;;;;;;;16.80;62.30;;;;;;2037042;28;19922;-66
2022/05/02 05:00:37;;;;;;;;;;;16.90;62.30;;;;;;2044895;28;19952;-66
2022/05/02 05:01:36;;;;;;;;;;;16.90;62.30;;;;;;2045992;28;19952;-66
2022/05/02 05:02:34;;;;;;;;;;;16.90;62.20;;;;;;2045758;28;19983;-66
2022/05/02 05:03:33;;;;;;;;;;;16.80;62.10;;;;;;2045975;28;19948;-66
2022/05/02 05:04:32;;;;;;;;;;;16.90;62.50;;;;;;2045945;28;19959;-66
2022/05/02 05:05:30;;;;;;;;;;;16.90;62.40;;;;;;2045104;28;19953;-66
2022/05/02 05:06:29;;;;;;;;;;;16.90;62.20;;;;;;2045015;28;19904;-66
2022/05/02 05:07:27;;;;;;;;;;;16.90;62.20;;;;;;2046082;28;19917;-66
2022/05/02 05:08:26;;;;;;;;;;;16.90;62.20;;;;;;2045886;28;19903;-64
2022/05/02 05:09:25;;;;;;;;;;;16.90;62.20;;;;;;2045871;28;19911;-65
2022/05/02 05:10:23;;;;;;;;;;;16.90;62.20;;;;;;2046049;28;20337;-65
2022/05/02 05:11:25;;;;;;;;;;;16.90;62.30;;;;;;2046186;28;19903;-66
2022/05/02 05:12:33;;;;;;;;;;;16.90;62.50;;;;;;2045636;28;19904;-65
2022/05/02 05:17:07;;;;;;;;;;;16.90;62.60;;;;;;2045856;28;19904;-64
2022/05/02 05:18:24;;;;;;;;;;;16.90;62.60;;;;;;2045862;28;19911;-65
2022/05/02 05:19:37;;;;;;;;;;;16.80;62.60;;;;;;2045867;28;19903;-65
2022/05/02 05:20:56;;;;;;;;;;;16.90;62.80;;;;;;2045821;28;19904;-64
2022/05/02 05:22:03;;;;;;;;;;;16.90;62.70;;;;;;2045928;28;19903;-66
2022/05/02 05:23:07;;;;;;;;;;;16.90;62.50;;;;;;2045347;28;19908;-67
2022/05/02 05:24:09;;;;;;;;;;;16.90;62.70;;;;;;2045512;28;19903;-64
2022/05/02 05:25:25;;;;;;;;;;;16.90;62.70;;;;;;2045775;28;19908;-64
2022/05/02 05:26:30;;;;;;;;;;;16.90;62.70;;;;;;2045819;28;19911;-67
2022/05/02 05:27:44;;;;;;;;;;;16.90;62.50;;;;;;2045836;28;20369;-66
2022/05/02 05:28:55;;;;;;;;;;;16.90;62.60;;;;;;2045811;28;19912;-65
2022/05/02 05:30:04;;;;;;;;;;;16.90;62.60;;;;;;2046020;28;19910;-66
2022/05/02 05:31:21;;;;;;;;;;;16.90;62.40;;;;;;2045735;28;19904;-63
2022/05/02 05:32:25;;;;;;;;;;;16.90;62.60;;;;;;2045980;28;19957;-65
2022/05/02 05:33:28;;;;;;;;;;;17.00;62.50;;;;;;2045753;28;19915;-65
2022/05/02 05:34:37;;;;;;;;;;;17.00;62.40;;;;;;2045870;28;19904;-66
2022/05/02 05:35:44;;;;;;;;;;;17.00;62.30;;;;;;2045638;28;19904;-65
2022/05/02 05:37:11;;;;;;;;;;;16.90;62.30;;;;;;2045734;28;19948;-64
2022/05/02 05:38:10;;;;;;;;;;;17.00;62.50;;;;;;2045928;28;19911;-66
2022/05/02 05:39:19;;;;;;;;;;;16.90;62.20;;;;;;2045594;28;20258;-66
2022/05/02 05:40:21;;;;;;;;;;;16.90;62.20;;;;;;2045579;28;19910;-65
2022/05/02 05:41:37;;;;;;;;;;;16.90;62.20;;;;;;2045617;28;19907;-66
2022/05/02 05:42:54;;;;;;;;;;;16.90;62.30;;;;;;2045636;28;19943;-65
2022/05/02 05:44:18;;;;;;;;;;;16.90;62.40;;;;;;2045873;28;19904;-66
2022/05/02 05:45:27;;;;;;;;;;;16.90;62.40;;;;;;2036591;28;19969;-66
2022/05/02 05:46:36;;;;;;;;;;;17.00;62.30;;;;;;2045553;28;19904;-65
2022/05/02 05:47:41;;;;;;;;;;;16.90;62.40;;;;;;2045069;28;19960;-65
2022/05/02 05:48:54;;;;;;;;;;;16.90;62.20;;;;;;2044726;28;19950;-65
2022/05/02 05:50:11;;;;;;;;;;;17.00;62.50;;;;;;2045421;28;20293;-65
2022/05/02 05:51:22;;;;;;;;;;;17.00;62.50;;;;;;2045669;28;19904;-65
2022/05/02 05:52:29;;;;;;;;;;;17.00;62.50;;;;;;2045624;28;19910;-65
2022/05/02 05:53:48;;;;;;;;;;;17.00;62.70;;;;;;2045584;28;19918;-66
2022/05/02 05:54:55;;;;;;;;;;;17.00;62.70;;;;;;2045774;28;19904;-66
2022/05/02 05:56:01;;;;;;;;;;;17.00;62.60;;;;;;2045433;28;19968;-65
2022/05/02 05:57:15;;;;;;;;;;;17.10;63.40;;;;;;2045362;28;19904;-65
2022/05/02 05:58:19;;;;;;;;;;;17.00;62.80;;;;;;2045623;28;20045;-65